Time;durP1;ratioP1;P1;durP2;ratioP2;P2;SDS_P1;SDS_P2;PMS_P1;PMS_P2;Temp;Humidity;BMP_temperature;BMP_pressure;BME280_temperature;BME280_humidity;BME280_pressure;Samples;Min_cycle;Max_cycle;Signal;HPM_P1;HPM_P2
2023/03/28 00:00:47;;;;;;;5.73;3.60;;;1.90;98.20;;;;;;5030057;28;20425;-56
2023/03/28 00:03:17;;;;;;;6.27;3.50;;;1.90;98.40;;;;;;5029522;28;21560;-54
2023/03/28 00:05:44;;;;;;;5.17;4.10;;;1.90;98.90;;;;;;5025568;28;20192;-55
2023/03/28 00:08:10;;;;;;;6.93;4.40;;;1.90;99.20;;;;;;5027664;28;20462;-55
2023/03/28 00:10:36;;;;;;;8.43;4.57;;;1.90;98.60;;;;;;5027990;28;20463;-56
2023/03/28 00:13:02;;;;;;;6.70;3.97;;;1.90;99.00;;;;;;5028248;28;20987;-56
2023/03/28 00:15:28;;;;;;;6.00;4.40;;;1.90;99.90;;;;;;5023886;28;20543;-56
2023/03/28 00:17:54;;;;;;;5.90;3.53;;;1.90;98.30;;;;;;5029228;28;20176;-56
2023/03/28 00:20:20;;;;;;;4.07;3.40;;;1.90;95.80;;;;;;5028015;28;20453;-56
2023/03/28 00:22:46;;;;;;;5.27;3.93;;;1.90;94.90;;;;;;5029822;28;20191;-56
2023/03/28 00:25:12;;;;;;;5.27;3.63;;;1.90;95.10;;;;;;5025810;28;20208;-54
2023/03/28 00:27:37;;;;;;;5.37;3.63;;;1.90;95.30;;;;;;5029038;28;20410;-56
2023/03/28 00:30:04;;;;;;;7.40;4.30;;;1.90;95.60;;;;;;5013500;28;20446;-56
2023/03/28 00:32:30;;;;;;;12.80;3.87;;;1.90;95.90;;;;;;5028603;28;20207;-56
2023/03/28 00:34:56;;;;;;;7.37;4.70;;;1.90;95.40;;;;;;5028142;28;20871;-54
2023/03/28 00:37:22;;;;;;;6.70;4.80;;;1.90;94.90;;;;;;5029309;28;20954;-56
2023/03/28 00:39:50;;;;;;;5.70;3.87;;;1.90;94.20;;;;;;5029452;28;20279;-56
2023/03/28 00:42:19;;;;;;;8.70;4.40;;;1.90;91.60;;;;;;5029351;28;20192;-57
2023/03/28 00:44:46;;;;;;;7.23;4.50;;;1.80;89.60;;;;;;5022849;28;20518;-55
2023/03/28 00:47:27;;;;;;;6.00;4.57;;;1.80;89.40;;;;;;5027933;28;20431;-56
2023/03/28 00:50:22;;;;;;;5.30;4.40;;;1.80;90.20;;;;;;5025655;28;20445;-54
2023/03/28 00:53:00;;;;;;;5.60;4.50;;;1.70;91.00;;;;;;5031093;28;20596;-56
2023/03/28 00:55:38;;;;;;;8.03;4.90;;;1.70;91.10;;;;;;5029904;28;20496;-54
2023/03/28 00:58:08;;;;;;;7.87;4.10;;;1.70;91.30;;;;;;5022033;28;20446;-54
2023/03/28 01:00:35;;;;;;;8.73;4.23;;;1.70;91.00;;;;;;5022999;28;20497;-54
2023/03/28 01:03:05;;;;;;;9.63;4.60;;;1.70;91.30;;;;;;5027290;28;20489;-55
2023/03/28 01:05:34;;;;;;;4.67;3.90;;;1.70;90.60;;;;;;5025548;28;21040;-55
2023/03/28 01:08:25;;;;;;;5.90;4.37;;;1.70;91.00;;;;;;5026239;28;20440;-54
2023/03/28 01:10:51;;;;;;;9.00;4.47;;;1.60;91.60;;;;;;5024751;28;20427;-54
2023/03/28 01:13:24;;;;;;;6.20;4.70;;;1.60;91.50;;;;;;5024624;28;20447;-57
2023/03/28 01:15:50;;;;;;;6.60;4.93;;;1.60;91.20;;;;;;5026795;28;20458;-55
2023/03/28 01:18:21;;;;;;;6.53;4.07;;;1.60;91.50;;;;;;5028093;28;20428;-55
2023/03/28 01:20:58;;;;;;;7.57;4.53;;;1.60;92.20;;;;;;5023191;28;20521;-56
2023/03/28 01:23:43;;;;;;;7.07;5.53;;;1.60;91.90;;;;;;5028034;28;20454;-54
2023/03/28 01:26:20;;;;;;;8.30;4.43;;;1.50;91.80;;;;;;5019975;28;20447;-55
2023/03/28 01:28:58;;;;;;;8.30;5.07;;;1.60;92.10;;;;;;5026734;28;21120;-56
2023/03/28 01:31:51;;;;;;;6.60;4.90;;;1.60;92.30;;;;;;5027915;28;20438;-55
2023/03/28 01:34:16;;;;;;;5.83;4.57;;;1.60;92.50;;;;;;5021311;28;20424;-58
2023/03/28 01:36:58;;;;;;;5.73;4.60;;;1.60;92.40;;;;;;5024054;28;20469;-57
2023/03/28 01:39:49;;;;;;;6.43;4.80;;;1.60;92.50;;;;;;5020864;28;20272;-54
2023/03/28 01:42:23;;;;;;;6.57;4.53;;;1.60;93.00;;;;;;5027141;28;20541;-56
2023/03/28 01:44:58;;;;;;;6.80;4.70;;;1.60;93.30;;;;;;5026871;28;20469;-55
2023/03/28 01:47:37;;;;;;;6.57;4.60;;;1.60;93.20;;;;;;5027476;28;21000;-55
2023/03/28 01:50:34;;;;;;;4.77;4.10;;;1.60;94.10;;;;;;5021197;28;20414;-55
2023/03/28 01:53:23;;;;;;;8.80;5.50;;;1.60;93.20;;;;;;5022050;28;20490;-57
2023/03/28 01:56:06;;;;;;;7.03;4.80;;;1.60;92.80;;;;;;5015723;28;20602;-55
2023/03/28 01:58:51;;;;;;;5.77;4.23;;;1.70;92.40;;;;;;5033312;28;20529;-55
2023/03/28 02:01:29;;;;;;;5.10;3.80;;;1.70;93.10;;;;;;5026562;28;20555;-56
2023/03/28 02:04:01;;;;;;;4.87;4.10;;;1.70;92.60;;;;;;5008202;28;20788;-55
2023/03/28 02:06:28;;;;;;;5.70;4.17;;;1.70;92.70;;;;;;5022646;28;20444;-55
2023/03/28 02:08:55;;;;;;;7.90;4.37;;;1.70;93.20;;;;;;5025980;28;20934;-57
2023/03/28 02:11:24;;;;;;;6.50;4.50;;;1.70;92.50;;;;;;5025823;28;20799;-56
2023/03/28 02:13:59;;;;;;;6.20;4.33;;;1.60;93.00;;;;;;5019678;28;20437;-57
2023/03/28 02:16:26;;;;;;;9.33;4.63;;;1.60;93.80;;;;;;5026304;28;20988;-55
2023/03/28 02:18:56;;;;;;;6.93;4.53;;;1.60;93.50;;;;;;5022035;28;20778;-54
2023/03/28 02:21:32;;;;;;;6.40;4.63;;;1.60;93.50;;;;;;5021632;28;20477;-57
2023/03/28 02:23:58;;;;;;;6.63;4.03;;;1.60;93.90;;;;;;5024390;28;20433;-56
2023/03/28 02:26:25;;;;;;;7.40;4.90;;;1.60;94.20;;;;;;5022301;28;20454;-56
2023/03/28 02:28:55;;;;;;;8.37;4.00;;;1.60;94.40;;;;;;5027286;28;20259;-58
2023/03/28 02:31:22;;;;;;;6.00;4.20;;;1.60;94.80;;;;;;5025844;28;20426;-54
2023/03/28 02:33:49;;;;;;;8.10;4.10;;;1.60;94.60;;;;;;5026753;28;20970;-55
2023/03/28 02:36:36;;;;;;;4.43;3.57;;;1.60;94.00;;;;;;5021119;28;20443;-54
2023/03/28 02:39:55;;;;;;;7.00;4.40;;;1.60;93.30;;;;;;5019486;28;20434;-54
2023/03/28 02:42:40;;;;;;;7.60;4.20;;;1.50;93.90;;;;;;4998860;28;20954;-55
2023/03/28 02:45:08;;;;;;;11.33;4.10;;;1.50;92.80;;;;;;5019454;28;20531;-55
2023/03/28 02:48:17;;;;;;;7.33;4.33;;;1.40;92.70;;;;;;5021911;28;20399;-56
2023/03/28 02:50:48;;;;;;;7.33;4.67;;;1.30;93.70;;;;;;5017093;28;20909;-55
2023/03/28 02:53:31;;;;;;;8.30;5.77;;;1.30;94.10;;;;;;5027045;28;20431;-56
2023/03/28 02:56:25;;;;;;;9.87;4.90;;;1.20;94.00;;;;;;5025154;28;20451;-57
2023/03/28 02:59:02;;;;;;;7.07;5.20;;;1.30;94.50;;;;;;5021021;28;20437;-56
2023/03/28 03:01:28;;;;;;;7.23;4.80;;;1.20;94.60;;;;;;5026354;28;20462;-56
2023/03/28 03:03:54;;;;;;;9.73;4.00;;;1.30;94.40;;;;;;5017623;28;20429;-53
2023/03/28 03:06:20;;;;;;;7.37;4.10;;;1.20;93.80;;;;;;5020394;28;20480;-54
2023/03/28 03:08:46;;;;;;;7.37;4.20;;;1.20;92.80;;;;;;5024424;28;20491;-55
2023/03/28 03:11:12;;;;;;;5.33;4.23;;;1.10;92.80;;;;;;5022413;28;20608;-54
2023/03/28 03:13:37;;;;;;;6.63;4.80;;;1.00;93.00;;;;;;5026424;28;20179;-55
2023/03/28 03:16:04;;;;;;;7.80;4.80;;;1.00;93.40;;;;;;5019056;28;20798;-57
2023/03/28 03:18:29;;;;;;;8.00;4.43;;;0.90;94.10;;;;;;5021265;28;20219;-56
2023/03/28 03:20:55;;;;;;;8.80;4.70;;;0.90;94.50;;;;;;5026579;28;20432;-56
2023/03/28 03:23:21;;;;;;;5.87;4.57;;;0.80;94.80;;;;;;5029987;28;20238;-57
2023/03/28 03:25:49;;;;;;;9.00;4.70;;;0.80;94.40;;;;;;5024108;28;20950;-55
2023/03/28 03:28:15;;;;;;;4.07;3.40;;;0.80;94.70;;;;;;5029309;28;20201;-56
2023/03/28 03:30:41;;;;;;;5.40;4.23;;;0.80;94.80;;;;;;5026387;28;20536;-57
2023/03/28 03:33:09;;;;;;;5.67;4.23;;;0.70;94.80;;;;;;5030369;28;21201;-55
2023/03/28 03:35:35;;;;;;;6.20;4.60;;;0.80;95.00;;;;;;5027861;28;20213;-56
2023/03/28 03:38:02;;;;;;;4.83;4.30;;;0.70;94.40;;;;;;5026506;28;20458;-57
2023/03/28 03:40:28;;;;;;;6.30;4.43;;;0.70;94.90;;;;;;5027592;28;20452;-57
2023/03/28 03:42:53;;;;;;;6.10;4.57;;;0.60;95.50;;;;;;5027126;28;20950;-55
2023/03/28 03:45:19;;;;;;;7.07;4.70;;;0.70;96.90;;;;;;5029661;28;20190;-56
2023/03/28 03:47:44;;;;;;;7.10;5.07;;;0.60;97.20;;;;;;5026050;28;20206;-57
2023/03/28 03:50:10;;;;;;;9.67;5.90;;;0.60;96.70;;;;;;5024116;28;20185;-55
2023/03/28 03:52:36;;;;;;;10.87;5.30;;;0.50;97.00;;;;;;5021837;28;20225;-55
2023/03/28 03:55:02;;;;;;;6.17;4.57;;;0.50;96.90;;;;;;5019618;28;20245;-55
2023/03/28 03:57:28;;;;;;;8.00;4.83;;;0.50;97.20;;;;;;5020271;28;20438;-59
2023/03/28 03:59:53;;;;;;;4.87;3.97;;;0.50;97.40;;;;;;5019782;28;21073;-57
2023/03/28 04:02:19;;;;;;;7.87;4.37;;;0.50;97.20;;;;;;5022874;28;20196;-55
2023/03/28 04:04:46;;;;;;;6.93;4.60;;;0.50;97.60;;;;;;5023494;28;20208;-59
2023/03/28 04:07:12;;;;;;;5.50;4.70;;;0.50;97.70;;;;;;5022657;28;20186;-56
2023/03/28 04:09:38;;;;;;;8.00;4.90;;;0.40;97.20;;;;;;5031670;28;20427;-54
2023/03/28 04:12:05;;;;;;;9.93;5.30;;;0.40;97.30;;;;;;5024809;28;20997;-56
2023/03/28 04:14:31;;;;;;;7.50;5.37;;;0.30;97.70;;;;;;5026922;28;20449;-55
2023/03/28 04:16:56;;;;;;;11.53;5.20;;;0.30;98.40;;;;;;5024132;28;20452;-54
2023/03/28 04:19:23;;;;;;;11.93;5.73;;;0.30;98.80;;;;;;5029791;28;20201;-54
2023/03/28 04:21:51;;;;;;;6.60;5.60;;;0.30;98.20;;;;;;5024794;28;20294;-55
2023/03/28 04:24:23;;;;;;;9.80;5.40;;;0.30;98.30;;;;;;5016349;28;20956;-53
2023/03/28 04:26:49;;;;;;;15.67;6.70;;;0.20;97.70;;;;;;5026640;28;20504;-52
2023/03/28 04:29:16;;;;;;;8.50;5.53;;;0.20;98.50;;;;;;5026691;28;20495;-55
2023/03/28 04:31:48;;;;;;;13.13;5.03;;;0.10;99.60;;;;;;5022098;28;20461;-52
2023/03/28 04:34:14;;;;;;;10.80;6.50;;;0.10;99.90;;;;;;5021140;28;20436;-56
2023/03/28 04:36:40;;;;;;;8.97;5.80;;;0.10;99.90;;;;;;5020615;28;20591;-55
2023/03/28 04:39:07;;;;;;;11.50;5.77;;;0.10;99.90;;;;;;5015996;28;20486;-57
2023/03/28 04:41:33;;;;;;;11.90;6.27;;;0.10;99.90;;;;;;5027896;28;20536;-55
2023/03/28 04:43:59;;;;;;;9.87;5.33;;;0.10;99.90;;;;;;5029440;28;21125;-53
2023/03/28 04:46:25;;;;;;;13.43;6.67;;;0.10;99.90;;;;;;5026115;28;20190;-55
2023/03/28 04:48:51;;;;;;;9.20;5.83;;;0.10;99.80;;;;;;5029922;28;20522;-54
2023/03/28 04:51:16;;;;;;;14.10;5.90;;;0.10;98.70;;;;;;5032269;28;20552;-56
2023/03/28 04:53:42;;;;;;;9.50;6.10;;;0.00;98.80;;;;;;5030962;28;20824;-52
2023/03/28 04:56:08;;;;;;;9.23;6.23;;;0.00;99.40;;;;;;5032411;28;20203;-54
2023/03/28 04:58:35;;;;;;;13.00;6.93;;;0.00;99.40;;;;;;5034793;28;20195;-54
2023/03/28 05:01:02;;;;;;;11.20;6.20;;;-0.10;99.30;;;;;;5032250;28;20186;-54
2023/03/28 05:03:28;;;;;;;11.97;5.70;;;-0.10;99.90;;;;;;5031649;28;20460;-55
2023/03/28 05:05:53;;;;;;;10.40;7.60;;;-0.10;99.80;;;;;;5025537;28;20460;-55
2023/03/28 05:08:22;;;;;;;8.80;6.47;;;-0.10;99.90;;;;;;5026266;28;20189;-54
2023/03/28 05:10:48;;;;;;;10.60;5.90;;;-0.10;99.50;;;;;;5028941;28;20573;-56
2023/03/28 05:13:15;;;;;;;8.97;6.17;;;-0.10;98.90;;;;;;5034507;28;20572;-53
2023/03/28 05:15:41;;;;;;;13.00;6.60;;;-0.20;99.00;;;;;;5034799;28;20468;-55
2023/03/28 05:18:07;;;;;;;7.80;5.30;;;-0.20;99.30;;;;;;5030956;28;20520;-54
2023/03/28 05:20:33;;;;;;;12.23;5.80;;;-0.20;99.70;;;;;;5031732;28;20476;-56
2023/03/28 05:23:00;;;;;;;12.47;6.70;;;-0.30;99.90;;;;;;5032601;28;20268;-53
2023/03/28 05:25:25;;;;;;;10.93;7.30;;;-0.20;99.90;;;;;;5036149;28;20503;-54
2023/03/28 05:27:51;;;;;;;10.10;6.47;;;-0.20;99.90;;;;;;5032227;28;20943;-55
2023/03/28 05:30:17;;;;;;;11.00;7.40;;;-0.20;99.90;;;;;;5031154;28;20212;-57
2023/03/28 05:32:42;;;;;;;11.23;6.37;;;-0.20;99.90;;;;;;5032071;28;20220;-56
2023/03/28 05:35:10;;;;;;;8.00;5.97;;;-0.20;99.90;;;;;;5027177;28;20430;-54
2023/03/28 05:37:36;;;;;;;7.10;5.67;;;-0.10;99.90;;;;;;5030240;28;20420;-54
2023/03/28 05:40:06;;;;;;;9.93;6.70;;;-0.10;99.50;;;;;;5030394;28;20440;-56
2023/03/28 05:42:33;;;;;;;8.20;5.90;;;-0.20;98.80;;;;;;5035393;28;20488;-55
2023/03/28 05:44:59;;;;;;;8.93;5.60;;;-0.20;98.70;;;;;;5023439;28;20510;-55
2023/03/28 05:47:24;;;;;;;9.37;6.37;;;-0.20;98.60;;;;;;5034273;28;20453;-56
2023/03/28 05:49:50;;;;;;;10.80;5.83;;;-0.30;98.60;;;;;;5027871;28;20251;-54
2023/03/28 05:52:16;;;;;;;13.93;5.70;;;-0.20;98.90;;;;;;5028964;28;20228;-56
2023/03/28 05:54:41;;;;;;;9.67;6.20;;;-0.30;99.40;;;;;;5026780;28;20188;-53
2023/03/28 05:57:07;;;;;;;12.07;6.17;;;-0.30;99.80;;;;;;5035248;28;20189;-55
2023/03/28 05:59:32;;;;;;;12.00;5.77;;;-0.30;99.90;;;;;;5030344;28;20223;-55
2023/03/28 06:01:59;;;;;;;9.03;5.80;;;-0.30;99.90;;;;;;5035107;28;20280;-53
2023/03/28 06:04:24;;;;;;;12.37;6.40;;;-0.20;99.90;;;;;;5035580;28;20647;-54
2023/03/28 06:06:51;;;;;;;18.27;6.77;;;-0.20;99.90;;;;;;5034167;28;20520;-55
2023/03/28 06:09:17;;;;;;;28.53;7.40;;;-0.10;99.90;;;;;;5030458;28;20181;-56
2023/03/28 06:11:43;;;;;;;21.67;6.03;;;0.00;99.90;;;;;;5028205;28;20400;-56
2023/03/28 06:14:09;;;;;;;15.80;5.13;;;0.00;96.80;;;;;;5034237;28;20500;-53
2023/03/28 06:16:35;;;;;;;22.17;6.10;;;0.10;98.60;;;;;;5032200;28;20232;-54
2023/03/28 06:19:01;;;;;;;12.73;6.87;;;0.10;97.20;;;;;;5028629;28;20438;-56
2023/03/28 06:21:27;;;;;;;7.50;6.50;;;0.20;96.20;;;;;;5032360;28;20505;-53
2023/03/28 06:23:52;;;;;;;11.00;6.23;;;0.20;96.50;;;;;;5033784;28;20863;-54
2023/03/28 06:26:18;;;;;;;8.23;6.33;;;0.30;97.60;;;;;;5032915;28;20213;-56
2023/03/28 06:28:44;;;;;;;19.83;5.83;;;0.40;97.20;;;;;;5020786;28;20273;-56
2023/03/28 06:31:11;;;;;;;10.93;5.73;;;0.50;96.70;;;;;;5028759;28;20174;-55
2023/03/28 06:33:39;;;;;;;8.23;5.97;;;0.60;96.70;;;;;;5025653;28;20242;-54
2023/03/28 06:36:06;;;;;;;6.57;5.23;;;0.80;94.60;;;;;;5035632;28;20440;-56
2023/03/28 06:38:33;;;;;;;7.77;5.30;;;0.90;93.70;;;;;;5035375;28;20427;-57
2023/03/28 06:40:58;;;;;;;11.60;5.33;;;1.00;92.40;;;;;;5033963;28;20524;-53
2023/03/28 06:43:24;;;;;;;11.77;4.60;;;1.00;90.90;;;;;;5032075;28;20495;-55
2023/03/28 06:45:50;;;;;;;10.00;5.60;;;1.10;89.40;;;;;;5028364;28;20255;-55
2023/03/28 06:48:16;;;;;;;10.87;5.50;;;1.10;88.70;;;;;;5032833;28;20177;-56
2023/03/28 06:50:48;;;;;;;7.40;4.90;;;1.20;88.40;;;;;;5026938;28;20433;-54
2023/03/28 06:53:17;;;;;;;9.03;5.70;;;1.30;90.00;;;;;;5034131;28;20483;-56
2023/03/28 06:55:43;;;;;;;8.10;4.83;;;1.40;87.20;;;;;;5037967;28;20437;-57
2023/03/28 06:58:09;;;;;;;11.63;5.43;;;1.50;84.10;;;;;;5028546;28;20486;-55
2023/03/28 07:00:35;;;;;;;12.10;5.20;;;1.60;81.50;;;;;;5031663;28;20438;-53
2023/03/28 07:03:01;;;;;;;12.53;5.80;;;1.60;81.00;;;;;;5031684;28;20715;-53
2023/03/28 07:05:28;;;;;;;11.47;6.40;;;1.60;79.40;;;;;;5034581;28;20446;-53
2023/03/28 07:07:53;;;;;;;8.87;5.90;;;1.60;79.00;;;;;;5035298;28;20179;-55
2023/03/28 07:10:19;;;;;;;12.50;5.47;;;1.70;78.60;;;;;;5036524;28;20505;-56
2023/03/28 07:12:45;;;;;;;10.40;5.70;;;1.60;77.70;;;;;;5034252;28;20178;-56
2023/03/28 07:15:11;;;;;;;12.00;6.73;;;1.60;77.90;;;;;;5026739;28;20462;-54
2023/03/28 07:17:36;;;;;;;9.40;6.13;;;1.60;77.20;;;;;;5031895;28;20741;-54
2023/03/28 07:20:03;;;;;;;12.80;5.30;;;1.60;79.10;;;;;;5032026;28;20189;-56
2023/03/28 07:22:29;;;;;;;8.77;5.17;;;1.70;79.00;;;;;;5036542;28;20221;-56
2023/03/28 07:24:55;;;;;;;8.17;5.60;;;1.70;77.80;;;;;;5037159;28;20504;-55
2023/03/28 07:27:21;;;;;;;12.23;5.73;;;1.70;79.20;;;;;;5021251;28;20434;-55
2023/03/28 07:29:46;;;;;;;8.33;5.30;;;1.80;81.30;;;;;;5027831;28;20195;-56
2023/03/28 07:32:12;;;;;;;9.33;4.83;;;1.90;81.90;;;;;;5032307;28;20998;-56
2023/03/28 07:34:38;;;;;;;8.67;4.63;;;1.90;79.30;;;;;;5033036;28;20241;-55
2023/03/28 07:37:04;;;;;;;8.60;4.80;;;2.00;79.30;;;;;;5034515;28;20267;-54
2023/03/28 07:39:29;;;;;;;15.70;6.27;;;2.10;77.10;;;;;;5036747;28;20425;-54
2023/03/28 07:41:55;;;;;;;12.83;6.37;;;2.20;75.60;;;;;;5035975;28;20240;-57
2023/03/28 07:44:21;;;;;;;13.57;5.83;;;2.20;76.30;;;;;;5034138;28;20176;-54
2023/03/28 07:46:46;;;;;;;7.47;5.17;;;2.30;75.80;;;;;;5035804;28;20259;-55
2023/03/28 07:49:14;;;;;;;14.70;5.50;;;2.40;74.90;;;;;;5032137;28;20247;-54
2023/03/28 07:51:40;;;;;;;6.97;5.23;;;2.40;74.90;;;;;;5034355;28;20179;-56
2023/03/28 07:54:06;;;;;;;10.77;5.87;;;2.60;73.90;;;;;;5025114;28;20438;-55
2023/03/28 07:56:31;;;;;;;9.30;5.47;;;2.70;73.30;;;;;;5030008;28;20451;-56
2023/03/28 07:58:57;;;;;;;15.77;4.90;;;2.70;71.40;;;;;;5032284;28;20525;-53
2023/03/28 08:01:23;;;;;;;6.97;4.27;;;2.80;69.40;;;;;;5032621;28;20176;-55
2023/03/28 08:03:49;;;;;;;4.67;4.13;;;2.80;68.40;;;;;;5033054;28;20215;-54
2023/03/28 08:06:16;;;;;;;11.30;4.43;;;2.90;67.80;;;;;;5030919;28;20461;-54
2023/03/28 08:08:42;;;;;;;6.80;5.23;;;2.90;66.90;;;;;;5032650;28;20204;-56
2023/03/28 08:11:10;;;;;;;7.40;3.93;;;3.00;66.40;;;;;;5034984;28;20436;-54
2023/03/28 08:13:36;;;;;;;11.87;3.53;;;3.10;65.50;;;;;;5029969;28;20323;-54
2023/03/28 08:16:01;;;;;;;6.10;3.60;;;3.20;64.10;;;;;;5035439;28;21046;-55
2023/03/28 08:18:27;;;;;;;4.90;3.17;;;3.30;63.60;;;;;;5035183;28;20184;-57
2023/03/28 08:21:01;;;;;;;4.50;3.50;;;3.30;62.10;;;;;;5033515;28;20176;-56
2023/03/28 08:23:27;;;;;;;4.03;3.23;;;3.40;61.70;;;;;;5036394;28;20207;-55
2023/03/28 08:26:04;;;;;;;6.03;3.10;;;3.50;60.10;;;;;;5017948;28;20795;-55
2023/03/28 08:28:35;;;;;;;7.10;3.30;;;3.50;58.70;;;;;;5026446;28;20557;-55
2023/03/28 08:31:01;;;;;;;3.07;2.43;;;3.60;58.00;;;;;;5030116;28;20433;-57
2023/03/28 08:33:27;;;;;;;8.70;2.23;;;3.60;57.60;;;;;;5024058;28;20441;-56
2023/03/28 08:35:54;;;;;;;5.43;2.60;;;3.70;57.20;;;;;;5029029;28;20464;-55
2023/03/28 08:38:20;;;;;;;4.67;2.43;;;3.90;56.90;;;;;;5027824;28;20430;-54
2023/03/28 08:41:02;;;;;;;2.90;2.17;;;3.90;56.10;;;;;;5032740;28;20425;-58
2023/03/28 08:43:57;;;;;;;3.77;2.50;;;4.10;55.60;;;;;;5026933;28;20197;-57
2023/03/28 08:46:27;;;;;;;7.90;3.13;;;4.20;53.30;;;;;;5028179;28;20446;-56
2023/03/28 08:48:54;;;;;;;5.53;2.90;;;4.40;52.30;;;;;;5030422;28;20452;-57
2023/03/28 08:51:39;;;;;;;3.83;2.77;;;4.40;51.70;;;;;;5026934;28;20430;-55
2023/03/28 08:54:55;;;;;;;3.70;2.73;;;4.40;51.10;;;;;;5028656;28;20444;-56
2023/03/28 08:57:27;;;;;;;4.53;2.50;;;4.50;51.30;;;;;;5040051;28;20434;-55
2023/03/28 09:00:00;;;;;;;6.10;2.77;;;4.80;51.90;;;;;;5022566;28;20449;-55
2023/03/28 09:02:28;;;;;;;4.20;2.60;;;5.00;51.20;;;;;;5020943;28;20461;-55
2023/03/28 09:04:56;;;;;;;3.57;2.70;;;5.20;51.20;;;;;;5026783;28;20430;-55
2023/03/28 09:07:50;;;;;;;2.73;2.30;;;5.40;50.90;;;;;;5028993;28;20413;-55
2023/03/28 09:10:28;;;;;;;4.40;1.97;;;5.60;50.40;;;;;;5035632;28;20468;-56
2023/03/28 09:13:05;;;;;;;2.90;2.37;;;5.90;48.90;;;;;;5032853;28;20580;-53
2023/03/28 09:15:46;;;;;;;2.23;2.00;;;6.00;47.70;;;;;;5026316;28;20515;-56
2023/03/28 09:18:23;;;;;;;3.90;2.23;;;6.20;47.20;;;;;;5016463;28;20402;-53
2023/03/28 09:21:26;;;;;;;4.20;2.40;;;6.40;47.30;;;;;;5023856;28;20521;-55
2023/03/28 09:23:58;;;;;;;7.40;2.37;;;6.60;47.00;;;;;;5027492;28;20532;-53
2023/03/28 09:26:33;;;;;;;3.03;2.50;;;6.70;46.70;;;;;;5027062;28;20446;-53
2023/03/28 09:29:00;;;;;;;5.73;2.17;;;6.60;45.50;;;;;;5038804;28;20413;-54
2023/03/28 09:31:31;;;;;;;4.90;2.47;;;6.60;45.70;;;;;;5032014;28;20425;-55
2023/03/28 09:33:58;;;;;;;4.37;2.20;;;6.50;45.70;;;;;;5025225;28;20947;-55
2023/03/28 09:36:30;;;;;;;3.27;2.80;;;6.70;46.90;;;;;;5030505;28;20450;-54
2023/03/28 09:39:13;;;;;;;5.50;2.70;;;6.80;46.40;;;;;;5043473;28;20429;-57
2023/03/28 09:42:22;;;;;;;5.00;2.50;;;6.80;44.80;;;;;;5022961;28;20810;-54
2023/03/28 09:45:03;;;;;;;6.17;2.20;;;6.60;44.20;;;;;;5028995;28;20430;-55
2023/03/28 09:47:29;;;;;;;4.60;2.70;;;6.60;44.80;;;;;;5031549;28;20434;-54
2023/03/28 09:49:55;;;;;;;3.00;2.30;;;6.60;44.80;;;;;;5037387;28;20432;-55
2023/03/28 09:52:20;;;;;;;4.17;2.30;;;6.40;44.00;;;;;;5029871;28;20183;-57
2023/03/28 09:54:47;;;;;;;4.93;2.43;;;6.20;44.10;;;;;;5033245;28;20180;-56
2023/03/28 09:57:13;;;;;;;4.67;2.57;;;6.10;44.30;;;;;;5042680;28;20206;-56
2023/03/28 09:59:39;;;;;;;2.80;2.50;;;6.00;44.80;;;;;;5030517;28;20470;-56
2023/03/28 10:02:24;;;;;;;2.47;2.10;;;5.80;45.00;;;;;;5025227;28;20647;-55
2023/03/28 10:04:51;;;;;;;3.93;2.97;;;5.70;46.10;;;;;;5032407;28;20426;-55
2023/03/28 10:07:41;;;;;;;10.27;3.93;;;5.60;46.20;;;;;;5033623;28;20518;-56
2023/03/28 10:10:16;;;;;;;3.43;1.93;;;5.50;45.80;;;;;;5028543;28;20509;-52
2023/03/28 10:12:46;;;;;;;2.33;1.80;;;5.40;45.00;;;;;;5029511;28;20443;-53
2023/03/28 10:15:43;;;;;;;6.70;2.40;;;5.40;45.60;;;;;;5029404;28;20529;-54
2023/03/28 10:18:16;;;;;;;3.10;2.00;;;5.60;47.00;;;;;;5024496;28;20525;-54
2023/03/28 10:20:42;;;;;;;2.40;2.20;;;5.70;46.20;;;;;;5030000;28;20430;-54
2023/03/28 10:23:11;;;;;;;2.57;2.37;;;5.80;46.60;;;;;;5031063;28;20492;-53
2023/03/28 10:25:41;;;;;;;4.00;2.20;;;6.00;46.40;;;;;;5027138;28;20227;-55
2023/03/28 10:28:13;;;;;;;4.77;2.20;;;6.10;46.30;;;;;;5034225;28;20430;-54
2023/03/28 10:30:40;;;;;;;5.07;2.23;;;6.20;46.40;;;;;;5031904;28;20430;-56
2023/03/28 10:33:15;;;;;;;4.90;2.80;;;6.30;45.40;;;;;;5030461;28;21096;-56
2023/03/28 10:36:03;;;;;;;3.13;2.80;;;6.50;45.10;;;;;;5028013;28;20495;-54
2023/03/28 10:38:47;;;;;;;3.60;2.33;;;6.50;44.00;;;;;;5026684;28;20506;-54
2023/03/28 10:41:24;;;;;;;7.83;2.90;;;6.60;45.80;;;;;;5036677;28;21007;-54
2023/03/28 10:43:50;;;;;;;7.90;2.90;;;6.90;47.20;;;;;;5025434;28;20465;-54
2023/03/28 10:46:36;;;;;;;2.87;2.50;;;7.00;46.10;;;;;;5031443;28;20457;-57
2023/03/28 10:49:05;;;;;;;4.50;2.60;;;7.20;45.00;;;;;;5035131;28;20271;-55
2023/03/28 10:51:32;;;;;;;5.90;2.87;;;7.30;43.70;;;;;;5032331;28;20477;-56
2023/03/28 10:54:25;;;;;;;2.80;2.50;;;7.50;44.70;;;;;;5024798;28;20946;-55
2023/03/28 10:57:11;;;;;;;3.03;2.10;;;7.70;44.50;;;;;;5031982;28;20465;-55
2023/03/28 10:59:58;;;;;;;3.87;2.57;;;8.00;45.30;;;;;;5028111;28;20510;-54
2023/03/28 11:03:00;;;;;;;3.00;2.73;;;8.10;44.10;;;;;;5029400;28;20492;-53
2023/03/28 11:05:54;;;;;;;8.23;2.60;;;8.30;44.60;;;;;;5030724;28;20448;-53
2023/03/28 11:08:38;;;;;;;4.43;2.77;;;8.50;44.00;;;;;;5026012;28;20994;-52
2023/03/28 11:11:15;;;;;;;3.00;2.30;;;8.70;44.10;;;;;;5023047;28;20442;-53
2023/03/28 11:13:46;;;;;;;4.90;3.37;;;8.90;43.60;;;;;;5029020;28;20951;-52
2023/03/28 11:16:24;;;;;;;4.50;3.20;;;9.10;43.40;;;;;;5029869;28;20484;-54
2023/03/28 11:18:55;;;;;;;7.40;2.90;;;9.20;40.70;;;;;;5026966;28;20980;-54
2023/03/28 11:21:21;;;;;;;4.00;2.67;;;9.20;41.30;;;;;;5025780;28;20973;-54
2023/03/28 11:24:09;;;;;;;7.73;2.90;;;9.20;42.00;;;;;;5025407;28;20455;-54
2023/03/28 11:27:13;;;;;;;4.77;2.97;;;9.30;42.70;;;;;;5029949;28;20203;-54
2023/03/28 11:29:45;;;;;;;3.20;2.90;;;9.20;40.90;;;;;;5036524;28;20419;-55
2023/03/28 11:32:27;;;;;;;8.13;3.23;;;9.10;40.40;;;;;;5020415;28;20438;-54
2023/03/28 11:35:29;;;;;;;3.70;3.00;;;9.10;40.10;;;;;;5027476;28;21035;-55
2023/03/28 11:38:21;;;;;;;9.60;3.57;;;9.10;42.40;;;;;;5021343;28;20466;-53
2023/03/28 11:40:59;;;;;;;6.20;3.23;;;9.10;39.90;;;;;;5025278;28;20439;-55
2023/03/28 11:43:41;;;;;;;6.13;3.40;;;9.10;41.50;;;;;;5027273;28;20480;-54
2023/03/28 11:46:15;;;;;;;6.57;3.00;;;9.30;40.80;;;;;;5031523;28;20450;-55
2023/03/28 11:48:50;;;;;;;5.07;3.37;;;9.30;41.00;;;;;;5029755;28;20461;-56
2023/03/28 11:51:25;;;;;;;4.67;3.00;;;9.50;40.90;;;;;;5031182;28;21051;-53
2023/03/28 11:54:10;;;;;;;3.47;3.13;;;9.70;41.10;;;;;;5023899;28;20863;-54
2023/03/28 11:56:41;;;;;;;6.10;4.20;;;9.90;41.00;;;;;;5026404;28;20832;-53
2023/03/28 11:59:14;;;;;;;8.03;3.33;;;9.90;40.10;;;;;;5033655;28;20464;-53
2023/03/28 12:01:47;;;;;;;4.10;3.20;;;10.00;39.20;;;;;;5025365;28;20430;-52
2023/03/28 12:04:19;;;;;;;6.37;3.10;;;10.20;39.50;;;;;;5027375;28;20440;-53
2023/03/28 12:07:21;;;;;;;4.30;3.27;;;10.30;39.30;;;;;;5022743;28;20440;-54
2023/03/28 12:09:56;;;;;;;5.17;3.20;;;10.40;38.50;;;;;;5029231;28;20477;-55
2023/03/28 12:12:45;;;;;;;5.90;3.93;;;10.40;37.80;;;;;;5020725;28;20443;-57
2023/03/28 12:15:18;;;;;;;6.00;3.10;;;10.30;37.40;;;;;;5023490;28;20448;-55
2023/03/28 12:17:49;;;;;;;5.70;2.93;;;10.20;36.30;;;;;;5025931;28;20507;-54
2023/03/28 12:20:38;;;;;;;4.87;3.17;;;10.00;35.80;;;;;;5026377;28;20434;-56
2023/03/28 12:23:13;;;;;;;2.73;2.50;;;10.10;37.10;;;;;;4981777;28;1083174;-57
2023/03/28 12:25:52;;;;;;;3.40;2.70;;;10.40;38.30;;;;;;5022588;28;20461;-54
2023/03/28 12:28:32;;;;;;;6.83;3.00;;;10.70;37.10;;;;;;5020530;28;20525;-55
2023/03/28 12:31:10;;;;;;;3.67;2.97;;;11.00;36.50;;;;;;5025190;28;21016;-55
2023/03/28 12:34:20;;;;;;;3.60;3.30;;;11.20;36.90;;;;;;5018673;28;20434;-55
2023/03/28 12:36:57;;;;;;;5.80;3.43;;;11.60;36.20;;;;;;5019238;28;20533;-57
2023/03/28 12:39:42;;;;;;;3.70;2.80;;;11.90;35.30;;;;;;5016333;28;20494;-56
2023/03/28 12:42:11;;;;;;;3.37;2.93;;;12.10;33.80;;;;;;5018308;28;20458;-54
2023/03/28 12:44:50;;;;;;;5.20;3.07;;;12.10;34.00;;;;;;5027109;28;20426;-56
2023/03/28 12:47:22;;;;;;;5.47;3.30;;;12.30;33.10;;;;;;5027164;28;20911;-56
2023/03/28 12:49:57;;;;;;;3.67;2.80;;;12.20;32.20;;;;;;5023105;28;20478;-55
2023/03/28 12:52:29;;;;;;;4.50;2.80;;;12.40;32.40;;;;;;5030103;28;20973;-54
2023/03/28 12:55:07;;;;;;;6.97;3.20;;;12.40;33.10;;;;;;5033319;28;20426;-54
2023/03/28 12:57:44;;;;;;;4.30;3.20;;;12.50;33.80;;;;;;5031654;28;20430;-58
2023/03/28 13:00:31;;;;;;;5.33;3.40;;;12.60;32.00;;;;;;5031541;28;20526;-55
2023/03/28 13:03:04;;;;;;;6.27;3.40;;;12.70;32.30;;;;;;5030347;28;20455;-56
2023/03/28 13:05:45;;;;;;;4.27;3.60;;;12.90;33.60;;;;;;5028855;28;20458;-55
2023/03/28 13:08:13;;;;;;;7.17;4.07;;;13.20;34.30;;;;;;5027777;28;20476;-55
2023/03/28 13:10:41;;;;;;;5.20;3.77;;;13.50;34.20;;;;;;5020869;28;20879;-55
2023/03/28 13:13:15;;;;;;;4.70;4.10;;;13.70;31.80;;;;;;5031459;28;20457;-56
2023/03/28 13:15:53;;;;;;;7.10;3.67;;;13.70;31.70;;;;;;5031443;28;20456;-58
2023/03/28 13:18:21;;;;;;;9.40;3.80;;;13.60;32.40;;;;;;5023088;28;20483;-57